الصفحة الرئيسية
METAR-TAF:

METAR-TAF

مطار :

مطار نورمان مانلي الدولي

كينغستون, جامايكا

دائرة عرض: 17-56N, خط طول: 076-47W, ارتفاع: 3 متر

مراقبة الطقس الحالي

تاريخ ووقت الإصدار 56 دقيقة قبل الساعة 04:00UTC
ريح 5 عقدة من الشمال الغربي
درجة الحرارة 28°درجة مئوية
الرطوبة 84%
ضغط 1016 hPa
الرؤية 10 كم أو أكثر
غيوم قليلة على ارتفاع 2200 قدم

METAR: MKJP 180400Z 31005KT 9999 FEW022 28/25 Q1016

زمن: 23:56 (04:56 UTC)

توقعات

تاريخ ووقت الإصدار 5ساعات و 41 دقيقة قبل الساعة 23:15UTC
التوقعات صالحة من18 الساعة 00 UTC إلى 18 الساعة 24 UTC
ريح 8 عقدة من الشمال
الرؤية 10 كم أو أكثر
غيوم قليلة على ارتفاع 2200 قدم, مزنة ركامية.
أصبح
من 18 الساعة 14 UTC إلى 18 الساعة 16 UTC
ريح 20 عقدة من الجنوب الشرقي
نظرية الاحتمالات 30% :
مؤقت
من 18 الساعة 18 UTC إلى 18 الساعة 22 UTC
غيوم مفككة على ارتفاع 1800 قدم, مزنة ركامية.
عاصفة رعدية

TAF: MKJP 172315Z 1800/1824 35008KT 9999 FEW022CB BECMG 1814/1816 14020KT PROB30 TEMPO 1818/1822 TS BKN018CB

أرصاد الطقس والتوقعات من أكثر من 4000 مطار (تقارير الطقس للمطار METAR والتنبؤ بالطقس بالمطارTAF).

المحطات المتاحة هي النقط الصفراء والحمراء على الخريطة.

حرك المؤشر فوق النقطة لمعرفة اسم المحطة.

ثم انقر لمعرفة أرصاد وتوقعات الطقس.

لتغيير الخارطة: اضغط على الأزرار الخضراء مع رمز الصليب الأسود للتكبير. على الزر الأخضر مع شرطة للتصغير، أو على الأسهم الخضراء للخرائط المجاورة.


METAR-TAF: